Time;durP1;ratioP1;P1;durP2;ratioP2;P2;SDS_P1;SDS_P2;PMS_P1;PMS_P2;Temp;Humidity;BMP_temperature;BMP_pressure;BME280_temperature;BME280_humidity;BME280_pressure;Samples;Min_cycle;Max_cycle;Signal;HPM_P1;HPM_P2
2022/04/17 00:00:52;;;;;;;9.50;4.60;;;;;;;;;;5044979;28;20234;-84
2022/04/17 00:03:21;;;;;;;9.83;4.50;;;;;;;;;;5052137;28;20216;-82
2022/04/17 00:05:49;;;;;;;8.80;4.10;;;;;;;;;;5051658;28;20226;-83
2022/04/17 00:08:16;;;;;;;9.73;4.77;;;;;;;;;;5048948;28;20209;-82
2022/04/17 00:10:43;;;;;;;9.17;4.27;;;;;;;;;;5047859;28;20207;-84
2022/04/17 00:13:10;;;;;;;15.40;4.60;;;;;;;;;;5046802;28;20195;-82
2022/04/17 00:15:39;;;;;;;11.37;4.80;;;;;;;;;;5047757;28;20224;-84
2022/04/17 00:18:06;;;;;;;10.47;4.37;;;;;;;;;;5046563;28;20342;-83
2022/04/17 00:20:34;;;;;;;8.83;4.53;;;;;;;;;;5040736;28;20216;-84
2022/04/17 00:23:02;;;;;;;11.20;5.07;;;;;;;;;;5045179;28;20700;-84
2022/04/17 00:25:29;;;;;;;11.07;5.10;;;;;;;;;;5045884;28;20219;-83
2022/04/17 00:27:56;;;;;;;8.73;4.63;;;;;;;;;;5047001;28;20667;-82
2022/04/17 00:30:24;;;;;;;9.67;4.60;;;;;;;;;;5048407;28;20203;-83
2022/04/17 00:32:52;;;;;;;9.67;4.97;;;;;;;;;;5045541;28;20214;-83
2022/04/17 00:35:19;;;;;;;9.77;5.17;;;;;;;;;;5047042;28;20232;-83
2022/04/17 00:37:46;;;;;;;6.73;4.43;;;;;;;;;;5049854;28;20257;-82
2022/04/17 00:40:14;;;;;;;9.23;5.00;;;;;;;;;;5043731;28;20212;-84
2022/04/17 00:42:41;;;;;;;10.47;5.00;;;;;;;;;;5049498;28;20203;-83
2022/04/17 00:45:09;;;;;;;10.87;4.57;;;;;;;;;;5046808;28;20232;-84
2022/04/17 00:47:36;;;;;;;12.53;4.50;;;;;;;;;;5044856;28;20464;-83
2022/04/17 00:50:07;;;;;;;8.17;4.83;;;;;;;;;;5053324;28;20213;-83
2022/04/17 00:52:34;;;;;;;12.93;5.60;;;;;;;;;;5048702;28;20658;-83
2022/04/17 00:55:02;;;;;;;7.80;4.57;;;;;;;;;;5054360;28;20227;-82
2022/04/17 00:57:30;;;;;;;8.83;5.07;;;;;;;;;;5046589;28;20508;-84
2022/04/17 00:59:58;;;;;;;10.30;4.80;;;;;;;;;;5047945;28;20213;-82
2022/04/17 01:02:25;;;;;;;9.40;5.20;;;;;;;;;;5048342;28;20306;-82
2022/04/17 01:04:52;;;;;;;10.17;4.97;;;;;;;;;;5045341;28;20731;-82
2022/04/17 01:07:23;;;;;;;10.57;5.07;;;;;;;;;;5045114;28;20527;-82
2022/04/17 01:09:51;;;;;;;11.17;5.00;;;;;;;;;;5041952;28;20659;-81
2022/04/17 01:12:20;;;;;;;12.10;4.27;;;;;;;;;;5045925;28;20288;-82
2022/04/17 01:14:51;;;;;;;13.80;4.50;;;;;;;;;;5048482;28;20945;-82
2022/04/17 01:17:23;;;;;;;9.60;4.33;;;;;;;;;;5047630;28;20514;-83
2022/04/17 01:19:50;;;;;;;8.33;4.57;;;;;;;;;;5044166;28;20441;-84
2022/04/17 01:22:19;;;;;;;8.30;5.60;;;;;;;;;;5047328;28;20453;-83
2022/04/17 01:27:32;;;;;;;13.60;5.07;;;;;;;;;;5050791;28;20429;-83
2022/04/17 01:29:59;;;;;;;12.73;4.70;;;;;;;;;;5052372;28;20450;-83
2022/04/17 01:32:26;;;;;;;8.60;4.60;;;;;;;;;;5048797;28;20506;-83
2022/04/17 01:34:53;;;;;;;9.33;4.90;;;;;;;;;;5052274;28;20524;-82
2022/04/17 01:37:22;;;;;;;10.27;4.83;;;;;;;;;;5044938;28;20489;-82
2022/04/17 01:39:52;;;;;;;8.77;4.87;;;;;;;;;;5050415;28;20795;-84
2022/04/17 01:42:19;;;;;;;11.47;4.40;;;;;;;;;;5046073;28;20220;-82
2022/04/17 01:44:46;;;;;;;10.67;5.13;;;;;;;;;;5049918;28;20203;-82
2022/04/17 01:47:13;;;;;;;10.93;4.83;;;;;;;;;;5047542;28;20206;-82
2022/04/17 01:49:40;;;;;;;9.37;5.30;;;;;;;;;;5045589;28;20217;-81
2022/04/17 01:52:09;;;;;;;19.33;5.53;;;;;;;;;;5047243;28;20463;-82
2022/04/17 01:54:37;;;;;;;11.30;4.80;;;;;;;;;;5049045;28;20298;-83
2022/04/17 01:57:05;;;;;;;11.43;5.17;;;;;;;;;;5043764;28;20494;-82
2022/04/17 01:59:32;;;;;;;10.37;5.03;;;;;;;;;;5050403;28;20455;-82
2022/04/17 02:02:00;;;;;;;11.27;5.57;;;;;;;;;;5052299;28;20829;-81
2022/04/17 02:04:32;;;;;;;12.23;5.90;;;;;;;;;;5047576;28;20465;-81
2022/04/17 02:06:59;;;;;;;9.07;4.97;;;;;;;;;;5045645;28;20598;-82
2022/04/17 02:09:27;;;;;;;9.37;5.10;;;;;;;;;;5048094;28;20460;-83
2022/04/17 02:11:55;;;;;;;11.23;5.33;;;;;;;;;;5042138;28;20453;-83
2022/04/17 02:14:23;;;;;;;10.87;5.07;;;;;;;;;;5043007;28;20604;-82
2022/04/17 02:16:50;;;;;;;9.37;4.97;;;;;;;;;;5046101;28;20495;-82
2022/04/17 02:19:19;;;;;;;11.43;5.37;;;;;;;;;;5045269;28;20563;-82
2022/04/17 02:21:46;;;;;;;9.97;4.80;;;;;;;;;;5048313;28;20475;-81
2022/04/17 02:24:15;;;;;;;8.30;4.80;;;;;;;;;;5045917;28;20533;-81
2022/04/17 02:26:42;;;;;;;13.17;5.83;;;;;;;;;;5045419;28;20454;-82
2022/04/17 02:29:17;;;;;;;9.20;5.10;;;;;;;;;;5045483;28;20482;-82
2022/04/17 02:31:44;;;;;;;9.57;4.90;;;;;;;;;;5039435;28;20458;-81
2022/04/17 02:34:11;;;;;;;9.40;5.17;;;;;;;;;;5048313;28;20466;-81
2022/04/17 02:36:39;;;;;;;11.10;5.10;;;;;;;;;;5045901;28;20858;-81
2022/04/17 02:39:06;;;;;;;10.10;4.80;;;;;;;;;;5047866;28;20492;-82
2022/04/17 02:41:33;;;;;;;12.03;4.97;;;;;;;;;;5044299;28;20458;-83
2022/04/17 02:44:00;;;;;;;11.53;5.03;;;;;;;;;;5046383;28;20480;-82
2022/04/17 02:49:14;;;;;;;9.70;4.57;;;;;;;;;;5046076;28;20457;-81
2022/04/17 02:51:41;;;;;;;9.83;4.90;;;;;;;;;;5045676;28;20466;-81
2022/04/17 02:54:08;;;;;;;10.03;5.30;;;;;;;;;;5043769;28;20454;-84
2022/04/17 02:56:35;;;;;;;10.10;5.50;;;;;;;;;;5044844;28;20469;-82
2022/04/17 02:59:02;;;;;;;10.67;5.33;;;;;;;;;;5047512;28;20497;-82
2022/04/17 03:07:00;;;;;;;14.63;5.13;;;;;;;;;;5046319;28;20446;-83
2022/04/17 03:09:27;;;;;;;9.20;5.03;;;;;;;;;;5046524;28;20441;-82
2022/04/17 03:11:54;;;;;;;10.67;5.60;;;;;;;;;;5041705;28;20521;-81
2022/04/17 03:14:21;;;;;;;8.87;4.97;;;;;;;;;;5046375;28;20469;-82
2022/04/17 03:16:50;;;;;;;9.83;5.07;;;;;;;;;;5046563;28;20561;-81
2022/04/17 03:19:17;;;;;;;9.20;5.10;;;;;;;;;;5045923;28;20489;-82
2022/04/17 03:21:44;;;;;;;12.37;5.80;;;;;;;;;;5043779;28;20446;-83
2022/04/17 03:24:12;;;;;;;12.20;5.50;;;;;;;;;;5042446;28;20477;-82
2022/04/17 03:26:41;;;;;;;11.87;5.43;;;;;;;;;;5044251;28;20462;-83
2022/04/17 03:29:08;;;;;;;11.00;5.10;;;;;;;;;;5044399;28;20880;-83
2022/04/17 03:31:35;;;;;;;10.77;5.03;;;;;;;;;;5043267;28;20470;-82
2022/04/17 03:34:05;;;;;;;8.77;5.03;;;;;;;;;;5049490;28;20869;-83
2022/04/17 03:36:46;;;;;;;8.90;5.20;;;;;;;;;;5067055;22;20489;-82
2022/04/17 03:39:15;;;;;;;14.53;5.43;;;;;;;;;;5047869;28;20889;-82
2022/04/17 03:41:42;;;;;;;9.33;4.90;;;;;;;;;;5041789;28;20468;-82
2022/04/17 03:44:09;;;;;;;10.23;5.27;;;;;;;;;;5044935;28;20453;-82
2022/04/17 03:46:36;;;;;;;12.53;5.40;;;;;;;;;;5040257;28;20460;-82
2022/04/17 03:49:06;;;;;;;9.47;4.93;;;;;;;;;;5040301;28;20490;-82
2022/04/17 03:51:34;;;;;;;11.40;5.10;;;;;;;;;;5039608;28;20484;-82
2022/04/17 03:54:01;;;;;;;10.10;5.20;;;;;;;;;;5036458;28;20446;-82
2022/04/17 03:56:28;;;;;;;10.47;4.87;;;;;;;;;;5034249;28;20482;-82
2022/04/17 03:58:56;;;;;;;9.87;4.53;;;;;;;;;;5032987;28;20485;-82
2022/04/17 04:01:42;;;;;;;9.00;4.97;;;;;;;;;;5042932;28;20929;-82
2022/04/17 04:07:30;;;;;;;9.70;5.23;;;;;;;;;;5043197;28;20946;-82
2022/04/17 04:10:01;;;;;;;9.73;4.80;;;;;;;;;;5029768;28;20492;-81
2022/04/17 04:12:28;;;;;;;10.13;5.17;;;;;;;;;;5033476;28;20518;-82
2022/04/17 04:14:56;;;;;;;10.37;5.00;;;;;;;;;;5034936;28;20994;-81
2022/04/17 04:17:24;;;;;;;8.80;4.70;;;;;;;;;;5033326;28;20548;-82
2022/04/17 04:19:52;;;;;;;10.83;4.93;;;;;;;;;;5034977;28;20825;-81
2022/04/17 04:22:21;;;;;;;10.13;4.60;;;;;;;;;;5035396;28;20458;-82
2022/04/17 04:24:48;;;;;;;8.60;5.10;;;;;;;;;;5033706;28;20824;-82
2022/04/17 04:30:00;;;;;;;7.67;4.20;;;;;;;;;;5034082;28;20504;-82
2022/04/17 04:32:27;;;;;;;10.40;5.40;;;;;;;;;;5035856;28;20441;-82
2022/04/17 04:35:09;;;;;;;17.50;4.97;;;;;;;;;;5036737;28;20464;-82
2022/04/17 04:37:38;;;;;;;10.63;5.37;;;;;;;;;;5036489;28;20465;-82
2022/04/17 04:40:06;;;;;;;11.90;4.77;;;;;;;;;;5040898;28;20979;-81
2022/04/17 04:42:33;;;;;;;10.97;4.93;;;;;;;;;;5040656;28;20910;-82
2022/04/17 04:47:45;;;;;;;8.50;4.90;;;;;;;;;;5039313;28;20444;-82
2022/04/17 04:50:15;;;;;;;8.77;4.43;;;;;;;;;;5042123;28;20454;-82
2022/04/17 04:52:44;;;;;;;11.50;4.70;;;;;;;;;;5042679;28;20468;-82
2022/04/17 04:55:11;;;;;;;10.57;5.23;;;;;;;;;;5038225;28;20457;-82
2022/04/17 04:57:54;;;;;;;11.03;4.97;;;;;;;;;;5040998;28;20445;-82
2022/04/17 05:03:07;;;;;;;14.20;5.30;;;;;;;;;;5033580;28;20453;-81
2022/04/17 05:05:35;;;;;;;15.57;5.57;;;;;;;;;;5042978;28;20495;-82
2022/04/17 05:08:04;;;;;;;8.77;4.70;;;;;;;;;;5044632;28;20449;-82
2022/04/17 05:10:33;;;;;;;8.27;4.90;;;;;;;;;;5041347;28;20454;-81
2022/04/17 05:13:00;;;;;;;8.50;4.73;;;;;;;;;;5042174;28;20927;-82
2022/04/17 05:15:27;;;;;;;10.03;5.20;;;;;;;;;;5044494;28;20455;-82
2022/04/17 05:17:55;;;;;;;12.50;5.53;;;;;;;;;;5042834;28;20477;-82
2022/04/17 05:20:26;;;;;;;9.37;4.90;;;;;;;;;;5042101;28;20199;-82
2022/04/17 05:23:03;;;;;;;10.23;5.13;;;;;;;;;;5042339;28;20207;-83
2022/04/17 05:25:32;;;;;;;8.70;4.63;;;;;;;;;;5041468;28;20227;-83
2022/04/17 05:28:02;;;;;;;7.37;4.03;;;;;;;;;;5043264;28;20710;-82
2022/04/17 05:30:29;;;;;;;6.87;4.40;;;;;;;;;;5042661;28;20226;-83
2022/04/17 05:32:56;;;;;;;7.70;4.50;;;;;;;;;;5042977;28;20631;-82
2022/04/17 05:35:26;;;;;;;7.77;4.50;;;;;;;;;;5042569;28;20235;-83
2022/04/17 05:40:42;;;;;;;8.33;4.50;;;;;;;;;;5042009;28;20270;-83
2022/04/17 05:43:10;;;;;;;6.57;4.20;;;;;;;;;;5047972;28;20221;-83
2022/04/17 05:45:38;;;;;;;7.00;3.90;;;;;;;;;;5040473;28;20231;-83
2022/04/17 05:48:06;;;;;;;6.03;3.67;;;;;;;;;;5033975;28;20205;-83
2022/04/17 05:50:33;;;;;;;7.77;3.70;;;;;;;;;;5039346;28;20313;-83
2022/04/17 05:53:01;;;;;;;7.03;3.83;;;;;;;;;;5040616;28;20245;-83
2022/04/17 05:55:28;;;;;;;7.13;3.87;;;;;;;;;;5045535;28;20231;-84
2022/04/17 05:57:57;;;;;;;5.20;3.73;;;;;;;;;;5047707;28;20218;-83
2022/04/17 06:00:27;;;;;;;6.27;4.13;;;;;;;;;;5043198;28;20204;-83
2022/04/17 06:02:55;;;;;;;6.20;3.70;;;;;;;;;;5037693;28;20226;-83
2022/04/17 06:05:22;;;;;;;6.07;3.90;;;;;;;;;;5042282;28;20509;-83
2022/04/17 06:07:49;;;;;;;7.27;3.70;;;;;;;;;;5040568;28;20217;-84
2022/04/17 06:10:17;;;;;;;6.17;4.03;;;;;;;;;;5036264;28;20200;-84
2022/04/17 06:12:44;;;;;;;8.80;3.83;;;;;;;;;;5043442;28;20530;-84
2022/04/17 06:15:13;;;;;;;7.93;4.00;;;;;;;;;;5043416;28;20262;-83
2022/04/17 06:17:40;;;;;;;6.20;3.80;;;;;;;;;;5040724;28;20207;-84
2022/04/17 06:20:08;;;;;;;6.17;3.60;;;;;;;;;;5038755;28;20294;-84
2022/04/17 06:22:36;;;;;;;5.77;3.63;;;;;;;;;;5037182;28;20215;-84
2022/04/17 06:25:04;;;;;;;5.57;3.53;;;;;;;;;;5042112;28;20241;-84
2022/04/17 06:27:37;;;;;;;7.37;3.97;;;;;;;;;;5033503;28;20218;-84
2022/04/17 06:30:09;;;;;;;7.97;3.90;;;;;;;;;;5041950;28;20215;-84
2022/04/17 06:32:38;;;;;;;6.73;3.90;;;;;;;;;;5042154;28;20212;-84
2022/04/17 06:35:06;;;;;;;7.27;3.80;;;;;;;;;;5034275;28;20295;-83
2022/04/17 06:37:33;;;;;;;4.53;3.00;;;;;;;;;;5031264;28;20286;-84
2022/04/17 06:40:01;;;;;;;5.23;3.30;;;;;;;;;;5030706;28;20655;-83
2022/04/17 06:42:28;;;;;;;4.63;3.23;;;;;;;;;;5034448;28;20655;-83
2022/04/17 06:44:55;;;;;;;5.63;3.53;;;;;;;;;;5040738;28;20271;-84
2022/04/17 06:47:24;;;;;;;7.33;3.93;;;;;;;;;;5037763;28;20231;-84
2022/04/17 06:49:52;;;;;;;11.63;3.90;;;;;;;;;;5037396;28;20212;-84
2022/04/17 06:52:20;;;;;;;6.53;3.63;;;;;;;;;;5040189;28;20258;-83
2022/04/17 06:54:47;;;;;;;7.33;4.10;;;;;;;;;;5038656;28;20591;-84
2022/04/17 06:57:14;;;;;;;9.10;3.50;;;;;;;;;;5038795;28;20234;-84
2022/04/17 06:59:41;;;;;;;8.10;4.40;;;;;;;;;;5039877;28;20228;-84
2022/04/17 07:02:09;;;;;;;9.30;4.20;;;;;;;;;;5038090;28;20214;-83
2022/04/17 07:04:36;;;;;;;7.03;4.20;;;;;;;;;;5033626;28;20210;-84
2022/04/17 07:07:05;;;;;;;7.83;4.07;;;;;;;;;;5038227;28;20223;-83
2022/04/17 07:09:33;;;;;;;7.43;4.67;;;;;;;;;;5039510;28;20258;-84
2022/04/17 07:12:00;;;;;;;9.50;4.40;;;;;;;;;;5037653;28;20694;-84
2022/04/17 07:14:32;;;;;;;7.70;4.27;;;;;;;;;;5035998;28;20231;-83
2022/04/17 07:16:59;;;;;;;6.00;3.97;;;;;;;;;;5037002;28;20301;-83
2022/04/17 07:19:26;;;;;;;8.27;4.33;;;;;;;;;;5043400;28;20223;-83
2022/04/17 07:21:53;;;;;;;6.70;3.70;;;;;;;;;;5035208;28;20740;-84
2022/04/17 07:24:24;;;;;;;5.50;3.60;;;;;;;;;;5042976;28;20214;-84
2022/04/17 07:26:53;;;;;;;5.83;3.50;;;;;;;;;;5037784;28;20758;-84
2022/04/17 07:29:22;;;;;;;6.70;3.93;;;;;;;;;;5044625;28;20222;-84
2022/04/17 07:31:51;;;;;;;6.67;3.73;;;;;;;;;;5038956;28;20208;-84
2022/04/17 07:34:22;;;;;;;6.43;4.00;;;;;;;;;;5037487;28;20243;-83
2022/04/17 07:36:52;;;;;;;5.23;3.20;;;;;;;;;;5038937;28;20235;-83
2022/04/17 07:39:19;;;;;;;5.47;3.40;;;;;;;;;;5039295;28;20234;-83
2022/04/17 07:41:48;;;;;;;4.03;2.67;;;;;;;;;;5041725;28;20207;-83
2022/04/17 07:44:16;;;;;;;5.63;2.30;;;;;;;;;;5039318;28;20299;-83
2022/04/17 07:46:43;;;;;;;6.33;2.40;;;;;;;;;;5032549;28;20633;-84
2022/04/17 07:49:11;;;;;;;5.27;2.70;;;;;;;;;;5040225;28;20867;-84
2022/04/17 07:51:38;;;;;;;2.47;1.63;;;;;;;;;;5046901;28;20301;-83
2022/04/17 07:54:08;;;;;;;3.87;2.03;;;;;;;;;;5054614;28;20242;-83
2022/04/17 07:56:35;;;;;;;3.53;1.90;;;;;;;;;;5053187;28;20484;-84
2022/04/17 07:59:06;;;;;;;3.43;2.00;;;;;;;;;;5047218;28;20214;-83
2022/04/17 08:01:39;;;;;;;2.87;1.73;;;;;;;;;;5053319;28;20210;-83
2022/04/17 08:04:06;;;;;;;2.67;1.57;;;;;;;;;;5046356;28;20456;-83
2022/04/17 08:06:34;;;;;;;4.60;2.33;;;;;;;;;;5049828;28;20242;-83
2022/04/17 08:09:03;;;;;;;4.67;1.80;;;;;;;;;;5050530;28;20227;-83
2022/04/17 08:11:30;;;;;;;3.50;1.70;;;;;;;;;;5055818;28;20290;-83
2022/04/17 08:13:57;;;;;;;3.57;1.70;;;;;;;;;;5052455;28;20228;-83
2022/04/17 08:16:26;;;;;;;3.40;1.77;;;;;;;;;;5039298;28;20255;-83
2022/04/17 08:18:53;;;;;;;4.30;2.00;;;;;;;;;;5041413;28;20199;-83
2022/04/17 08:21:22;;;;;;;4.23;2.00;;;;;;;;;;5033792;28;20655;-84
2022/04/17 08:23:49;;;;;;;1.80;1.57;;;;;;;;;;5044338;28;20209;-83
2022/04/17 08:26:17;;;;;;;2.63;1.67;;;;;;;;;;5047827;28;20254;-83
2022/04/17 08:28:44;;;;;;;4.67;1.77;;;;;;;;;;5047695;28;20199;-83
2022/04/17 08:31:14;;;;;;;4.37;2.00;;;;;;;;;;5041161;28;20240;-83
2022/04/17 08:33:42;;;;;;;3.53;1.77;;;;;;;;;;5037281;28;20207;-83
2022/04/17 08:36:09;;;;;;;3.40;1.80;;;;;;;;;;5035656;28;20695;-83
2022/04/17 08:38:37;;;;;;;3.07;1.80;;;;;;;;;;5040439;28;20221;-83
2022/04/17 08:41:06;;;;;;;6.53;2.40;;;;;;;;;;5038564;28;20234;-83
2022/04/17 08:43:38;;;;;;;5.60;2.10;;;;;;;;;;5040892;28;20203;-83
2022/04/17 08:46:05;;;;;;;5.67;1.93;;;;;;;;;;5037236;28;20238;-83
2022/04/17 08:48:33;;;;;;;4.63;2.10;;;;;;;;;;5045700;28;20294;-83
2022/04/17 08:51:03;;;;;;;2.73;1.70;;;;;;;;;;5036825;28;20613;-84
2022/04/17 08:53:32;;;;;;;3.97;1.80;;;;;;;;;;5036680;28;20211;-84
2022/04/17 08:55:59;;;;;;;2.73;1.60;;;;;;;;;;5042724;28;20243;-84
2022/04/17 08:58:27;;;;;;;2.50;1.50;;;;;;;;;;5045603;28;20208;-83
2022/04/17 09:00:54;;;;;;;3.43;1.97;;;;;;;;;;5038531;28;20334;-83
2022/04/17 09:03:23;;;;;;;3.10;1.87;;;;;;;;;;5039401;28;20272;-83
2022/04/17 09:05:53;;;;;;;3.93;1.80;;;;;;;;;;5038182;28;20228;-83
2022/04/17 09:08:22;;;;;;;3.03;1.90;;;;;;;;;;5039110;28;20273;-83
2022/04/17 09:10:56;;;;;;;6.07;2.17;;;;;;;;;;5037253;28;20232;-83
2022/04/17 09:13:27;;;;;;;3.57;1.80;;;;;;;;;;5039242;28;20278;-83
2022/04/17 09:15:55;;;;;;;4.70;2.13;;;;;;;;;;5033890;28;20711;-83
2022/04/17 09:18:22;;;;;;;5.67;2.10;;;;;;;;;;5039127;28;20213;-83
2022/04/17 09:20:53;;;;;;;4.40;2.17;;;;;;;;;;5044398;28;20207;-83
2022/04/17 09:23:33;;;;;;;2.40;1.60;;;;;;;;;;5044768;28;20748;-83
2022/04/17 09:26:02;;;;;;;5.27;1.93;;;;;;;;;;5041259;28;20243;-82
2022/04/17 09:28:33;;;;;;;3.30;1.97;;;;;;;;;;5046983;28;20203;-83
2022/04/17 09:31:01;;;;;;;2.20;1.77;;;;;;;;;;5047318;28;20227;-83
2022/04/17 09:33:36;;;;;;;2.97;1.60;;;;;;;;;;5044003;28;20203;-82
2022/04/17 09:36:03;;;;;;;4.87;1.90;;;;;;;;;;5132386;22;20238;-81
2022/04/17 09:38:34;;;;;;;3.70;1.70;;;;;;;;;;5040215;28;20310;-80
2022/04/17 09:41:07;;;;;;;3.27;1.70;;;;;;;;;;5047387;28;20232;-80
2022/04/17 09:43:35;;;;;;;4.13;1.53;;;;;;;;;;5049071;28;20215;-80
2022/04/17 09:46:03;;;;;;;3.73;1.60;;;;;;;;;;5049206;28;20271;-81
2022/04/17 09:48:31;;;;;;;3.77;1.40;;;;;;;;;;5046681;28;20235;-81
2022/04/17 09:50:58;;;;;;;5.20;1.90;;;;;;;;;;5055363;28;20235;-82
2022/04/17 09:53:34;;;;;;;2.53;1.60;;;;;;;;;;5055542;28;20289;-80
2022/04/17 09:56:08;;;;;;;3.43;1.60;;;;;;;;;;5051624;28;20301;-79
2022/04/17 09:58:37;;;;;;;5.27;2.13;;;;;;;;;;5043132;28;20206;-79
2022/04/17 10:01:06;;;;;;;4.07;1.30;;;;;;;;;;5049587;28;20233;-80
2022/04/17 10:03:38;;;;;;;3.80;1.70;;;;;;;;;;5045705;28;20302;-80
2022/04/17 10:06:06;;;;;;;3.83;2.10;;;;;;;;;;5045899;28;20212;-81
2022/04/17 10:08:35;;;;;;;2.80;1.67;;;;;;;;;;5041900;28;20203;-80
2022/04/17 10:11:03;;;;;;;5.03;1.67;;;;;;;;;;5047731;28;20302;-79
2022/04/17 10:13:32;;;;;;;2.00;1.40;;;;;;;;;;5045483;28;20208;-80
2022/04/17 10:16:00;;;;;;;2.23;1.47;;;;;;;;;;5043711;28;20211;-79
2022/04/17 10:18:29;;;;;;;2.63;1.30;;;;;;;;;;5043140;28;20217;-80
2022/04/17 10:20:59;;;;;;;4.63;1.60;;;;;;;;;;5045256;28;20321;-80
2022/04/17 10:23:28;;;;;;;2.93;1.50;;;;;;;;;;5040834;28;20218;-80
2022/04/17 10:25:59;;;;;;;3.40;1.40;;;;;;;;;;5043613;28;20195;-81
2022/04/17 10:28:27;;;;;;;2.40;1.50;;;;;;;;;;5042155;28;20238;-81
2022/04/17 10:31:00;;;;;;;3.53;1.50;;;;;;;;;;5049060;28;20219;-80
2022/04/17 10:33:37;;;;;;;7.00;1.40;;;;;;;;;;5043318;28;20290;-80
2022/04/17 10:36:14;;;;;;;4.03;1.40;;;;;;;;;;5043915;28;20199;-80
2022/04/17 10:38:48;;;;;;;2.10;1.30;;;;;;;;;;5043078;28;21113;-82
2022/04/17 10:41:17;;;;;;;4.33;1.70;;;;;;;;;;5039714;28;20230;-80
2022/04/17 10:43:57;;;;;;;3.03;1.37;;;;;;;;;;5040966;28;20218;-79
2022/04/17 10:46:25;;;;;;;3.47;1.40;;;;;;;;;;5035813;28;20199;-81
2022/04/17 10:48:57;;;;;;;3.13;1.30;;;;;;;;;;5035624;28;20199;-81
2022/04/17 10:51:26;;;;;;;2.13;1.40;;;;;;;;;;5035557;28;21131;-81
2022/04/17 10:54:03;;;;;;;2.67;1.60;;;;;;;;;;5044214;28;20212;-81
2022/04/17 10:56:33;;;;;;;3.97;1.13;;;;;;;;;;5044338;28;20210;-81
2022/04/17 10:59:03;;;;;;;2.57;1.30;;;;;;;;;;5052507;28;20212;-81
2022/04/17 11:01:53;;;;;;;4.50;1.50;;;;;;;;;;5043545;28;20294;-80
2022/04/17 11:04:22;;;;;;;4.63;1.60;;;;;;;;;;5041738;28;20203;-79
2022/04/17 11:06:53;;;;;;;1.87;1.33;;;;;;;;;;5039836;28;21045;-80
2022/04/17 11:09:21;;;;;;;2.57;0.90;;;;;;;;;;5034969;28;21510;-79
2022/04/17 11:11:50;;;;;;;2.27;1.07;;;;;;;;;;5036842;28;20258;-79
2022/04/17 11:14:19;;;;;;;1.47;1.10;;;;;;;;;;5037799;28;20270;-80
2022/04/17 11:16:50;;;;;;;2.57;1.47;;;;;;;;;;5041036;28;20208;-79
2022/04/17 11:19:18;;;;;;;4.87;1.47;;;;;;;;;;5050006;28;20306;-80
2022/04/17 11:21:47;;;;;;;3.37;1.40;;;;;;;;;;5038192;28;20251;-80
2022/04/17 11:24:14;;;;;;;4.40;1.57;;;;;;;;;;5035755;28;20229;-82
2022/04/17 11:27:00;;;;;;;2.50;1.37;;;;;;;;;;5034063;28;20218;-82
2022/04/17 11:29:35;;;;;;;4.77;1.00;;;;;;;;;;5036949;28;20237;-82
2022/04/17 11:32:03;;;;;;;2.60;1.10;;;;;;;;;;5037693;28;20865;-81
2022/04/17 11:34:43;;;;;;;2.00;1.30;;;;;;;;;;5036438;28;20268;-83
2022/04/17 11:37:11;;;;;;;3.80;1.30;;;;;;;;;;5039691;28;20301;-80
2022/04/17 11:39:42;;;;;;;2.60;1.37;;;;;;;;;;5038560;28;20203;-83
2022/04/17 11:42:10;;;;;;;2.73;1.20;;;;;;;;;;5041520;28;20210;-81
2022/04/17 11:44:41;;;;;;;4.13;1.20;;;;;;;;;;5040049;28;20249;-82
2022/04/17 11:47:10;;;;;;;2.47;1.30;;;;;;;;;;5039744;28;20317;-79
2022/04/17 11:49:42;;;;;;;1.80;1.10;;;;;;;;;;5039679;28;20573;-81
2022/04/17 11:52:13;;;;;;;1.87;1.13;;;;;;;;;;5034139;28;20204;-81
2022/04/17 11:54:41;;;;;;;2.80;1.10;;;;;;;;;;5035419;28;20896;-83
2022/04/17 11:57:09;;;;;;;4.00;1.50;;;;;;;;;;5032131;28;20203;-81
2022/04/17 11:59:46;;;;;;;3.13;1.40;;;;;;;;;;5041509;28;20322;-80
2022/04/17 12:02:16;;;;;;;2.27;1.33;;;;;;;;;;5040433;28;20728;-81
2022/04/17 12:04:43;;;;;;;3.70;1.40;;;;;;;;;;5044321;28;20290;-81
2022/04/17 12:07:11;;;;;;;2.67;1.40;;;;;;;;;;5041566;28;20211;-83
2022/04/17 12:09:48;;;;;;;3.83;1.93;;;;;;;;;;5036837;28;20302;-81
2022/04/17 12:12:16;;;;;;;2.57;1.30;;;;;;;;;;5035038;28;20207;-81
2022/04/17 12:14:44;;;;;;;3.00;1.60;;;;;;;;;;5033771;28;20281;-80
2022/04/17 12:17:13;;;;;;;2.53;1.60;;;;;;;;;;5037625;28;20222;-81
2022/04/17 12:19:50;;;;;;;7.83;1.40;;;;;;;;;;5038243;28;20215;-82
2022/04/17 12:22:20;;;;;;;5.83;1.63;;;;;;;;;;5044585;28;20192;-82
2022/04/17 12:24:47;;;;;;;2.70;1.73;;;;;;;;;;5041396;28;20620;-82
2022/04/17 12:27:19;;;;;;;2.87;1.50;;;;;;;;;;5043805;28;20755;-83
2022/04/17 12:29:47;;;;;;;2.70;1.30;;;;;;;;;;5044969;28;20257;-81
2022/04/17 12:32:16;;;;;;;5.40;1.43;;;;;;;;;;5037773;28;20687;-80
2022/04/17 12:34:45;;;;;;;2.93;1.47;;;;;;;;;;5040780;28;20219;-82
2022/04/17 12:37:22;;;;;;;2.87;1.60;;;;;;;;;;5039581;28;20701;-81
2022/04/17 12:39:49;;;;;;;2.37;1.40;;;;;;;;;;5039175;28;20199;-81
2022/04/17 12:42:18;;;;;;;3.30;1.77;;;;;;;;;;5038976;28;20229;-82
2022/04/17 12:44:47;;;;;;;4.83;2.20;;;;;;;;;;5041676;28;20205;-83
2022/04/17 12:47:16;;;;;;;3.03;1.30;;;;;;;;;;5041662;28;21793;-81
2022/04/17 12:49:43;;;;;;;3.07;1.17;;;;;;;;;;5036354;28;20229;-82
2022/04/17 12:52:24;;;;;;;3.33;1.40;;;;;;;;;;5035746;28;20828;-81
2022/04/17 12:54:51;;;;;;;2.10;1.50;;;;;;;;;;5040675;28;20215;-80
2022/04/17 12:57:21;;;;;;;3.00;1.70;;;;;;;;;;5045309;28;20203;-82
2022/04/17 12:59:49;;;;;;;3.27;1.50;;;;;;;;;;5042254;28;20267;-81
2022/04/17 13:02:18;;;;;;;4.00;1.80;;;;;;;;;;5045818;28;20223;-83
2022/04/17 13:04:47;;;;;;;3.10;1.53;;;;;;;;;;5035137;28;20229;-82
2022/04/17 13:07:15;;;;;;;2.47;1.63;;;;;;;;;;5042250;28;20266;-82
2022/04/17 13:09:54;;;;;;;2.93;1.60;;;;;;;;;;5060802;28;20210;-80
2022/04/17 13:12:31;;;;;;;3.63;1.80;;;;;;;;;;5051224;28;20314;-81
2022/04/17 13:14:59;;;;;;;3.33;1.90;;;;;;;;;;5051082;28;20284;-81
2022/04/17 13:17:28;;;;;;;3.90;1.70;;;;;;;;;;5049409;28;20227;-81
2022/04/17 13:19:56;;;;;;;3.77;1.87;;;;;;;;;;5053115;28;20206;-82
2022/04/17 13:22:23;;;;;;;4.33;1.73;;;;;;;;;;5048273;28;20341;-81
2022/04/17 13:24:51;;;;;;;4.87;1.60;;;;;;;;;;5044542;28;20203;-81
2022/04/17 13:27:18;;;;;;;4.60;1.80;;;;;;;;;;5040350;28;21009;-79
2022/04/17 13:29:46;;;;;;;3.00;1.87;;;;;;;;;;5045465;28;20884;-78
2022/04/17 13:32:16;;;;;;;3.37;1.93;;;;;;;;;;5042017;28;20204;-79
2022/04/17 13:34:45;;;;;;;3.30;1.80;;;;;;;;;;5045690;28;20203;-78
2022/04/17 13:39:58;;;;;;;2.17;1.60;;;;;;;;;;5041191;28;20194;-77
2022/04/17 13:42:25;;;;;;;4.20;1.80;;;;;;;;;;5042143;28;20221;-78
2022/04/17 13:44:52;;;;;;;3.10;2.03;;;;;;;;;;5044851;28;20199;-78
2022/04/17 13:47:20;;;;;;;4.00;1.90;;;;;;;;;;5042580;28;20265;-80
2022/04/17 13:49:49;;;;;;;2.33;1.63;;;;;;;;;;5038049;28;20205;-80
2022/04/17 13:52:16;;;;;;;3.40;1.60;;;;;;;;;;5040747;28;20207;-79
2022/04/17 13:54:43;;;;;;;3.23;1.80;;;;;;;;;;5047899;28;20293;-78
2022/04/17 13:57:11;;;;;;;2.70;1.77;;;;;;;;;;5042983;28;20208;-79
2022/04/17 13:59:39;;;;;;;3.73;1.80;;;;;;;;;;5046263;28;20211;-82
2022/04/17 14:02:07;;;;;;;4.90;1.90;;;;;;;;;;5050615;28;20226;-82
2022/04/17 14:04:34;;;;;;;2.47;1.70;;;;;;;;;;5050677;28;20194;-82
2022/04/17 14:07:09;;;;;;;4.43;1.63;;;;;;;;;;5046686;28;20262;-81
2022/04/17 14:09:39;;;;;;;2.67;1.80;;;;;;;;;;5049235;28;20275;-81
2022/04/17 14:12:08;;;;;;;6.40;1.90;;;;;;;;;;5045963;28;20196;-81
2022/04/17 14:14:36;;;;;;;3.10;1.50;;;;;;;;;;5052766;28;20704;-81
2022/04/17 14:17:08;;;;;;;3.53;1.60;;;;;;;;;;5047269;28;20322;-80
2022/04/17 14:19:35;;;;;;;3.27;1.50;;;;;;;;;;5044456;28;20200;-80
2022/04/17 14:22:07;;;;;;;2.90;1.47;;;;;;;;;;5049562;28;20227;-80
2022/04/17 14:24:34;;;;;;;2.20;1.30;;;;;;;;;;5050913;28;20219;-79
2022/04/17 14:27:01;;;;;;;1.67;1.20;;;;;;;;;;5050657;28;20207;-79
2022/04/17 14:29:29;;;;;;;4.97;1.43;;;;;;;;;;5050561;28;20199;-80
2022/04/17 14:31:56;;;;;;;2.47;1.27;;;;;;;;;;5045768;28;20219;-79
2022/04/17 14:34:25;;;;;;;1.93;1.30;;;;;;;;;;5039966;28;20684;-81
2022/04/17 14:36:52;;;;;;;2.43;1.40;;;;;;;;;;5045614;28;20673;-81
2022/04/17 14:39:21;;;;;;;2.40;1.27;;;;;;;;;;5045464;28;20623;-81
2022/04/17 14:41:49;;;;;;;5.20;1.40;;;;;;;;;;5039266;28;20664;-79
2022/04/17 14:44:16;;;;;;;2.67;1.30;;;;;;;;;;5037216;28;20275;-79
2022/04/17 14:46:43;;;;;;;3.00;1.63;;;;;;;;;;5041896;28;20207;-78
2022/04/17 14:49:10;;;;;;;2.70;1.37;;;;;;;;;;5033386;28;20202;-78
2022/04/17 14:51:38;;;;;;;2.27;1.50;;;;;;;;;;5041440;28;20752;-79
2022/04/17 14:54:05;;;;;;;2.93;1.60;;;;;;;;;;5038488;28;20314;-79
2022/04/17 14:56:34;;;;;;;1.67;1.00;;;;;;;;;;5042090;28;20267;-80
2022/04/17 14:59:01;;;;;;;2.73;1.20;;;;;;;;;;5045869;28;20237;-80
2022/04/17 15:01:28;;;;;;;2.17;1.40;;;;;;;;;;5033906;28;20230;-80
2022/04/17 15:03:55;;;;;;;4.03;1.63;;;;;;;;;;5039862;28;20753;-79
2022/04/17 15:06:23;;;;;;;3.37;1.37;;;;;;;;;;5039603;28;20775;-78
2022/04/17 15:08:51;;;;;;;3.43;1.50;;;;;;;;;;5044071;28;20203;-78
2022/04/17 15:11:18;;;;;;;3.00;1.40;;;;;;;;;;5046471;28;20212;-78
2022/04/17 15:13:48;;;;;;;2.87;1.50;;;;;;;;;;5051964;28;20213;-79
2022/04/17 15:16:15;;;;;;;2.97;1.80;;;;;;;;;;5052263;28;20207;-77
2022/04/17 15:18:43;;;;;;;2.67;1.50;;;;;;;;;;5040784;28;20216;-78